sensor_id;sensor_type;location;lat;lon;timestamp;temperature;humidity
7212;DHT22;3647;48.792;9.802;2023-04-07T07:06:47;7.10;99.90
7212;DHT22;3647;48.792;9.802;2023-04-07T07:09:13;7.10;99.90
7212;DHT22;3647;48.792;9.802;2023-04-07T07:11:40;7.20;99.90
7212;DHT22;3647;48.792;9.802;2023-04-07T07:14:07;7.20;99.90
7212;DHT22;3647;48.792;9.802;2023-04-07T07:16:34;7.30;99.90
7212;DHT22;3647;48.792;9.802;2023-04-07T07:19:01;7.40;99.90
7212;DHT22;3647;48.792;9.802;2023-04-07T07:21:28;7.50;99.90
7212;DHT22;3647;48.792;9.802;2023-04-07T07:23:57;7.60;99.90
7212;DHT22;3647;48.792;9.802;2023-04-07T07:26:24;7.60;99.90
7212;DHT22;3647;48.792;9.802;2023-04-07T07:28:51;7.60;99.90
7212;DHT22;3647;48.792;9.802;2023-04-07T07:31:18;7.60;99.90
7212;DHT22;3647;48.792;9.802;2023-04-07T07:33:45;7.50;99.90
7212;DHT22;3647;48.792;9.802;2023-04-07T07:36:13;7.40;99.90
7212;DHT22;3647;48.792;9.802;2023-04-07T07:38:40;7.40;99.90
7212;DHT22;3647;48.792;9.802;2023-04-07T07:41:08;7.50;99.90
7212;DHT22;3647;48.792;9.802;2023-04-07T07:43:35;7.60;99.90
7212;DHT22;3647;48.792;9.802;2023-04-07T07:46:02;7.60;99.90
7212;DHT22;3647;48.792;9.802;2023-04-07T07:48:28;7.60;99.90
7212;DHT22;3647;48.792;9.802;2023-04-07T07:50:55;7.60;99.90
7212;DHT22;3647;48.792;9.802;2023-04-07T07:53:22;7.70;99.90
7212;DHT22;3647;48.792;9.802;2023-04-07T07:55:49;7.80;99.90
7212;DHT22;3647;48.792;9.802;2023-04-07T07:58:17;8.00;99.90
7212;DHT22;3647;48.792;9.802;2023-04-07T08:00:44;8.00;99.90
7212;DHT22;3647;48.792;9.802;2023-04-07T08:03:11;8.40;99.90
7212;DHT22;3647;48.792;9.802;2023-04-07T08:05:38;8.70;99.90
7212;DHT22;3647;48.792;9.802;2023-04-07T08:08:06;8.70;99.90
7212;DHT22;3647;48.792;9.802;2023-04-07T08:10:33;8.60;99.90
7212;DHT22;3647;48.792;9.802;2023-04-07T08:13:00;8.50;99.90
7212;DHT22;3647;48.792;9.802;2023-04-07T08:15:28;8.50;99.90
7212;DHT22;3647;48.792;9.802;2023-04-07T08:17:55;8.90;99.90
7212;DHT22;3647;48.792;9.802;2023-04-07T08:20:22;8.90;99.90
7212;DHT22;3647;48.792;9.802;2023-04-07T08:22:48;9.10;99.90
7212;DHT22;3647;48.792;9.802;2023-04-07T08:25:15;9.80;99.90
7212;DHT22;3647;48.792;9.802;2023-04-07T08:27:42;9.70;99.90
7212;DHT22;3647;48.792;9.802;2023-04-07T08:30:09;9.60;99.90
7212;DHT22;3647;48.792;9.802;2023-04-07T08:32:39;8.90;99.90
7212;DHT22;3647;48.792;9.802;2023-04-07T08:35:07;9.70;99.90
7212;DHT22;3647;48.792;9.802;2023-04-07T08:37:34;9.90;99.90
7212;DHT22;3647;48.792;9.802;2023-04-07T08:40:02;10.10;99.90
7212;DHT22;3647;48.792;9.802;2023-04-07T08:42:30;10.50;99.90
7212;DHT22;3647;48.792;9.802;2023-04-07T08:45:00;10.90;99.90
7212;DHT22;3647;48.792;9.802;2023-04-07T08:47:29;11.10;99.90
7212;DHT22;3647;48.792;9.802;2023-04-07T08:50:01;11.10;99.90
7212;DHT22;3647;48.792;9.802;2023-04-07T08:52:32;11.30;99.90
7212;DHT22;3647;48.792;9.802;2023-04-07T08:55:00;12.50;99.90
7212;DHT22;3647;48.792;9.802;2023-04-07T08:57:29;11.30;99.90
7212;DHT22;3647;48.792;9.802;2023-04-07T08:59:59;11.40;99.90
7212;DHT22;3647;48.792;9.802;2023-04-07T09:02:31;11.40;99.90
7212;DHT22;3647;48.792;9.802;2023-04-07T09:05:00;11.60;99.90
7212;DHT22;3647;48.792;9.802;2023-04-07T09:07:26;11.70;99.90
7212;DHT22;3647;48.792;9.802;2023-04-07T09:09:54;11.50;99.90
7212;DHT22;3647;48.792;9.802;2023-04-07T09:12:21;11.60;99.90
7212;DHT22;3647;48.792;9.802;2023-04-07T09:14:48;11.50;99.90
7212;DHT22;3647;48.792;9.802;2023-04-07T09:17:15;11.80;99.90
7212;DHT22;3647;48.792;9.802;2023-04-07T09:19:42;11.90;99.90
7212;DHT22;3647;48.792;9.802;2023-04-07T09:22:10;12.10;99.90
7212;DHT22;3647;48.792;9.802;2023-04-07T09:24:39;11.90;99.90
7212;DHT22;3647;48.792;9.802;2023-04-07T09:27:10;12.00;99.90
7212;DHT22;3647;48.792;9.802;2023-04-07T09:29:38;11.60;99.90
7212;DHT22;3647;48.792;9.802;2023-04-07T09:32:06;11.40;99.90
7212;DHT22;3647;48.792;9.802;2023-04-07T09:34:34;11.70;99.90
7212;DHT22;3647;48.792;9.802;2023-04-07T09:37:02;11.30;99.90
7212;DHT22;3647;48.792;9.802;2023-04-07T09:39:30;11.40;99.90
7212;DHT22;3647;48.792;9.802;2023-04-07T09:41:57;11.20;99.90
7212;DHT22;3647;48.792;9.802;2023-04-07T09:44:25;11.40;99.90
7212;DHT22;3647;48.792;9.802;2023-04-07T09:46:53;11.30;99.90
7212;DHT22;3647;48.792;9.802;2023-04-07T09:49:21;11.10;99.90
7212;DHT22;3647;48.792;9.802;2023-04-07T09:51:52;11.00;99.90
7212;DHT22;3647;48.792;9.802;2023-04-07T09:54:33;10.90;99.90
7212;DHT22;3647;48.792;9.802;2023-04-07T09:57:00;10.90;99.90
7212;DHT22;3647;48.792;9.802;2023-04-07T09:59:28;11.00;99.90
7212;DHT22;3647;48.792;9.802;2023-04-07T10:01:55;11.10;99.90
7212;DHT22;3647;48.792;9.802;2023-04-07T10:04:23;11.30;99.90
7212;DHT22;3647;48.792;9.802;2023-04-07T10:06:51;11.50;99.90
7212;DHT22;3647;48.792;9.802;2023-04-07T10:09:19;11.80;99.90
7212;DHT22;3647;48.792;9.802;2023-04-07T10:11:48;11.60;99.90
7212;DHT22;3647;48.792;9.802;2023-04-07T10:14:16;11.60;99.90
7212;DHT22;3647;48.792;9.802;2023-04-07T10:16:43;11.70;99.90
7212;DHT22;3647;48.792;9.802;2023-04-07T10:19:12;11.80;99.90
7212;DHT22;3647;48.792;9.802;2023-04-07T10:21:40;12.00;99.90
7212;DHT22;3647;48.792;9.802;2023-04-07T10:24:15;11.80;99.90
7212;DHT22;3647;48.792;9.802;2023-04-07T10:26:49;11.60;99.90
7212;DHT22;3647;48.792;9.802;2023-04-07T10:29:17;11.50;99.90
7212;DHT22;3647;48.792;9.802;2023-04-07T10:31:45;11.60;99.90
7212;DHT22;3647;48.792;9.802;2023-04-07T10:34:12;11.90;99.90
7212;DHT22;3647;48.792;9.802;2023-04-07T10:37:09;12.10;99.90
7212;DHT22;3647;48.792;9.802;2023-04-07T10:39:37;12.00;99.90
7212;DHT22;3647;48.792;9.802;2023-04-07T10:42:06;10.90;99.90
7212;DHT22;3647;48.792;9.802;2023-04-07T10:44:46;11.20;99.90
7212;DHT22;3647;48.792;9.802;2023-04-07T10:47:14;11.80;99.90
7212;DHT22;3647;48.792;9.802;2023-04-07T10:50:16;12.20;99.90
7212;DHT22;3647;48.792;9.802;2023-04-07T10:52:44;12.10;99.90
7212;DHT22;3647;48.792;9.802;2023-04-07T10:55:30;12.10;99.90
7212;DHT22;3647;48.792;9.802;2023-04-07T10:58:18;12.40;99.90
7212;DHT22;3647;48.792;9.802;2023-04-07T11:01:17;12.80;99.90
7212;DHT22;3647;48.792;9.802;2023-04-07T11:03:56;12.30;99.90
7212;DHT22;3647;48.792;9.802;2023-04-07T11:06:23;12.40;99.90
7212;DHT22;3647;48.792;9.802;2023-04-07T11:08:51;12.00;99.90
7212;DHT22;3647;48.792;9.802;2023-04-07T11:11:33;12.40;99.90
7212;DHT22;3647;48.792;9.802;2023-04-07T11:14:03;12.80;99.90
7212;DHT22;3647;48.792;9.802;2023-04-07T11:16:38;12.90;99.90
7212;DHT22;3647;48.792;9.802;2023-04-07T11:19:05;12.80;99.90
7212;DHT22;3647;48.792;9.802;2023-04-07T11:21:31;13.00;99.90
7212;DHT22;3647;48.792;9.802;2023-04-07T11:23:58;13.40;99.90
7212;DHT22;3647;48.792;9.802;2023-04-07T11:26:25;13.70;99.90
7212;DHT22;3647;48.792;9.802;2023-04-07T11:28:54;14.00;99.90
7212;DHT22;3647;48.792;9.802;2023-04-07T11:31:23;14.10;99.90
7212;DHT22;3647;48.792;9.802;2023-04-07T11:33:54;13.20;99.90
7212;DHT22;3647;48.792;9.802;2023-04-07T11:36:29;13.50;99.90
7212;DHT22;3647;48.792;9.802;2023-04-07T11:38:57;13.20;99.90
7212;DHT22;3647;48.792;9.802;2023-04-07T11:41:25;13.00;99.90
7212;DHT22;3647;48.792;9.802;2023-04-07T11:44:08;13.40;99.90
7212;DHT22;3647;48.792;9.802;2023-04-07T11:46:51;13.40;99.90
7212;DHT22;3647;48.792;9.802;2023-04-07T11:49:19;13.20;99.90
7212;DHT22;3647;48.792;9.802;2023-04-07T11:51:45;13.20;99.90
7212;DHT22;3647;48.792;9.802;2023-04-07T11:54:12;12.50;99.90
7212;DHT22;3647;48.792;9.802;2023-04-07T11:56:41;12.80;99.90
7212;DHT22;3647;48.792;9.802;2023-04-07T11:59:18;13.00;99.90
7212;DHT22;3647;48.792;9.802;2023-04-07T12:01:48;13.10;99.90
7212;DHT22;3647;48.792;9.802;2023-04-07T12:04:16;12.70;99.90
7212;DHT22;3647;48.792;9.802;2023-04-07T12:06:43;12.60;99.90
7212;DHT22;3647;48.792;9.802;2023-04-07T12:09:25;12.80;99.90
7212;DHT22;3647;48.792;9.802;2023-04-07T12:11:53;12.60;99.90
7212;DHT22;3647;48.792;9.802;2023-04-07T12:14:20;12.40;99.90
7212;DHT22;3647;48.792;9.802;2023-04-07T12:16:48;12.50;99.90
7212;DHT22;3647;48.792;9.802;2023-04-07T12:19:15;12.70;99.90
7212;DHT22;3647;48.792;9.802;2023-04-07T12:21:42;13.10;99.90
7212;DHT22;3647;48.792;9.802;2023-04-07T12:24:09;12.70;99.90
7212;DHT22;3647;48.792;9.802;2023-04-07T12:26:36;12.70;99.90
7212;DHT22;3647;48.792;9.802;2023-04-07T12:29:03;13.00;99.90
7212;DHT22;3647;48.792;9.802;2023-04-07T12:31:30;12.50;99.90
7212;DHT22;3647;48.792;9.802;2023-04-07T12:33:58;12.50;99.90
7212;DHT22;3647;48.792;9.802;2023-04-07T12:36:25;12.40;99.90
7212;DHT22;3647;48.792;9.802;2023-04-07T12:38:52;12.70;99.90
7212;DHT22;3647;48.792;9.802;2023-04-07T12:41:19;12.90;99.90
7212;DHT22;3647;48.792;9.802;2023-04-07T12:43:46;12.70;99.90
7212;DHT22;3647;48.792;9.802;2023-04-07T12:46:13;12.80;99.90
7212;DHT22;3647;48.792;9.802;2023-04-07T12:48:40;13.00;99.90
7212;DHT22;3647;48.792;9.802;2023-04-07T12:51:08;13.10;99.90
7212;DHT22;3647;48.792;9.802;2023-04-07T12:53:35;13.00;99.90
7212;DHT22;3647;48.792;9.802;2023-04-07T12:56:02;13.40;99.90
7212;DHT22;3647;48.792;9.802;2023-04-07T12:58:29;13.40;99.90
7212;DHT22;3647;48.792;9.802;2023-04-07T13:00:56;13.70;99.90
7212;DHT22;3647;48.792;9.802;2023-04-07T13:03:23;13.40;99.90
7212;DHT22;3647;48.792;9.802;2023-04-07T13:05:49;13.90;99.90
7212;DHT22;3647;48.792;9.802;2023-04-07T13:08:20;14.50;99.90
7212;DHT22;3647;48.792;9.802;2023-04-07T13:10:47;14.40;99.90
7212;DHT22;3647;48.792;9.802;2023-04-07T13:13:13;14.40;99.90
7212;DHT22;3647;48.792;9.802;2023-04-07T13:15:40;14.00;99.90
7212;DHT22;3647;48.792;9.802;2023-04-07T13:18:07;14.00;99.90
7212;DHT22;3647;48.792;9.802;2023-04-07T13:20:34;14.30;99.90
7212;DHT22;3647;48.792;9.802;2023-04-07T13:23:01;14.40;99.90
7212;DHT22;3647;48.792;9.802;2023-04-07T13:25:29;15.00;99.90
7212;DHT22;3647;48.792;9.802;2023-04-07T13:27:56;14.50;99.90
7212;DHT22;3647;48.792;9.802;2023-04-07T13:30:24;14.70;99.90
7212;DHT22;3647;48.792;9.802;2023-04-07T13:32:51;15.80;99.90
7212;DHT22;3647;48.792;9.802;2023-04-07T13:35:18;15.10;99.90
7212;DHT22;3647;48.792;9.802;2023-04-07T13:37:45;15.20;99.90
7212;DHT22;3647;48.792;9.802;2023-04-07T13:40:12;15.20;99.90
7212;DHT22;3647;48.792;9.802;2023-04-07T13:42:40;14.60;99.90
7212;DHT22;3647;48.792;9.802;2023-04-07T13:45:08;14.40;99.90
7212;DHT22;3647;48.792;9.802;2023-04-07T13:47:35;14.40;99.90
7212;DHT22;3647;48.792;9.802;2023-04-07T13:50:03;13.90;99.90
7212;DHT22;3647;48.792;9.802;2023-04-07T13:52:30;13.50;99.90
7212;DHT22;3647;48.792;9.802;2023-04-07T13:54:59;13.00;99.90
7212;DHT22;3647;48.792;9.802;2023-04-07T13:57:27;14.30;99.90
7212;DHT22;3647;48.792;9.802;2023-04-07T13:59:56;13.30;99.90
7212;DHT22;3647;48.792;9.802;2023-04-07T14:02:24;13.60;99.90
7212;DHT22;3647;48.792;9.802;2023-04-07T14:04:52;13.70;99.90
7212;DHT22;3647;48.792;9.802;2023-04-07T14:07:19;13.70;99.90
7212;DHT22;3647;48.792;9.802;2023-04-07T14:09:46;13.80;99.90
7212;DHT22;3647;48.792;9.802;2023-04-07T14:12:13;13.60;99.90
7212;DHT22;3647;48.792;9.802;2023-04-07T14:14:40;13.60;99.90
7212;DHT22;3647;48.792;9.802;2023-04-07T14:17:08;13.80;99.90
7212;DHT22;3647;48.792;9.802;2023-04-07T14:19:35;13.90;99.90
7212;DHT22;3647;48.792;9.802;2023-04-07T14:22:02;13.50;99.90
7212;DHT22;3647;48.792;9.802;2023-04-07T14:24:29;13.40;99.90
7212;DHT22;3647;48.792;9.802;2023-04-07T14:26:56;12.90;99.90
7212;DHT22;3647;48.792;9.802;2023-04-07T14:29:23;12.80;99.90
7212;DHT22;3647;48.792;9.802;2023-04-07T14:31:49;12.80;99.90
7212;DHT22;3647;48.792;9.802;2023-04-07T14:34:18;13.00;99.90
7212;DHT22;3647;48.792;9.802;2023-04-07T14:36:52;13.90;99.90
7212;DHT22;3647;48.792;9.802;2023-04-07T14:39:19;14.20;99.90
7212;DHT22;3647;48.792;9.802;2023-04-07T14:41:46;12.30;99.90
7212;DHT22;3647;48.792;9.802;2023-04-07T14:44:13;12.50;99.90
7212;DHT22;3647;48.792;9.802;2023-04-07T14:46:40;12.40;99.90
7212;DHT22;3647;48.792;9.802;2023-04-07T14:49:07;12.30;99.90
7212;DHT22;3647;48.792;9.802;2023-04-07T14:51:35;12.30;99.90
7212;DHT22;3647;48.792;9.802;2023-04-07T14:54:03;12.30;99.90
7212;DHT22;3647;48.792;9.802;2023-04-07T14:56:29;12.20;99.90
7212;DHT22;3647;48.792;9.802;2023-04-07T14:58:56;12.30;99.90
7212;DHT22;3647;48.792;9.802;2023-04-07T15:01:23;12.40;99.90
7212;DHT22;3647;48.792;9.802;2023-04-07T15:03:50;12.30;99.90
7212;DHT22;3647;48.792;9.802;2023-04-07T15:06:18;12.20;99.90
7212;DHT22;3647;48.792;9.802;2023-04-07T15:08:47;12.10;99.90
7212;DHT22;3647;48.792;9.802;2023-04-07T15:11:13;12.10;99.90
7212;DHT22;3647;48.792;9.802;2023-04-07T15:13:43;12.10;99.90
7212;DHT22;3647;48.792;9.802;2023-04-07T15:16:11;12.10;99.90
7212;DHT22;3647;48.792;9.802;2023-04-07T15:18:40;12.10;99.90
7212;DHT22;3647;48.792;9.802;2023-04-07T15:21:07;12.00;99.90
7212;DHT22;3647;48.792;9.802;2023-04-07T15:23:35;12.00;99.90
7212;DHT22;3647;48.792;9.802;2023-04-07T15:26:05;12.00;99.90
7212;DHT22;3647;48.792;9.802;2023-04-07T15:28:32;11.90;99.90
7212;DHT22;3647;48.792;9.802;2023-04-07T15:30:59;12.00;99.90
7212;DHT22;3647;48.792;9.802;2023-04-07T15:33:26;11.90;99.90
7212;DHT22;3647;48.792;9.802;2023-04-07T15:35:53;11.90;99.90
7212;DHT22;3647;48.792;9.802;2023-04-07T15:38:20;11.90;99.90
7212;DHT22;3647;48.792;9.802;2023-04-07T15:40:47;11.90;99.90
7212;DHT22;3647;48.792;9.802;2023-04-07T15:43:15;11.80;99.90
7212;DHT22;3647;48.792;9.802;2023-04-07T15:45:43;11.80;99.90
7212;DHT22;3647;48.792;9.802;2023-04-07T15:48:10;11.80;99.90
7212;DHT22;3647;48.792;9.802;2023-04-07T15:50:37;11.80;99.90
7212;DHT22;3647;48.792;9.802;2023-04-07T15:53:04;11.90;99.90
7212;DHT22;3647;48.792;9.802;2023-04-07T15:55:33;12.00;99.90
7212;DHT22;3647;48.792;9.802;2023-04-07T15:58:00;12.00;99.90
7212;DHT22;3647;48.792;9.802;2023-04-07T16:00:31;12.10;99.90
7212;DHT22;3647;48.792;9.802;2023-04-07T16:02:59;12.10;99.90
7212;DHT22;3647;48.792;9.802;2023-04-07T16:05:26;12.10;99.90
7212;DHT22;3647;48.792;9.802;2023-04-07T16:07:53;12.00;99.90
7212;DHT22;3647;48.792;9.802;2023-04-07T16:10:20;11.90;99.90
7212;DHT22;3647;48.792;9.802;2023-04-07T16:12:47;11.80;99.90
7212;DHT22;3647;48.792;9.802;2023-04-07T16:15:15;11.80;99.90
7212;DHT22;3647;48.792;9.802;2023-04-07T16:17:45;11.70;99.90
7212;DHT22;3647;48.792;9.802;2023-04-07T16:20:13;11.70;99.90
7212;DHT22;3647;48.792;9.802;2023-04-07T16:22:40;11.80;99.90
7212;DHT22;3647;48.792;9.802;2023-04-07T16:25:08;11.80;99.90
7212;DHT22;3647;48.792;9.802;2023-04-07T16:27:35;11.70;99.90
7212;DHT22;3647;48.792;9.802;2023-04-07T16:30:02;11.90;99.90
7212;DHT22;3647;48.792;9.802;2023-04-07T16:32:30;11.90;99.90
7212;DHT22;3647;48.792;9.802;2023-04-07T16:34:58;11.80;99.90
7212;DHT22;3647;48.792;9.802;2023-04-07T16:37:25;11.90;99.90
7212;DHT22;3647;48.792;9.802;2023-04-07T16:39:53;11.80;99.90
7212;DHT22;3647;48.792;9.802;2023-04-07T16:42:21;11.80;99.90
7212;DHT22;3647;48.792;9.802;2023-04-07T16:44:48;11.70;99.90
7212;DHT22;3647;48.792;9.802;2023-04-07T16:47:15;11.60;99.90
7212;DHT22;3647;48.792;9.802;2023-04-07T16:49:42;11.60;99.90
7212;DHT22;3647;48.792;9.802;2023-04-07T16:52:10;11.60;99.90
7212;DHT22;3647;48.792;9.802;2023-04-07T16:54:37;11.60;99.90
7212;DHT22;3647;48.792;9.802;2023-04-07T16:57:03;11.50;99.90
7212;DHT22;3647;48.792;9.802;2023-04-07T16:59:31;11.50;99.90
7212;DHT22;3647;48.792;9.802;2023-04-07T17:01:57;11.50;99.90
7212;DHT22;3647;48.792;9.802;2023-04-07T17:04:24;11.50;99.90
7212;DHT22;3647;48.792;9.802;2023-04-07T17:06:51;11.40;99.90
7212;DHT22;3647;48.792;9.802;2023-04-07T17:09:20;11.40;99.90
7212;DHT22;3647;48.792;9.802;2023-04-07T17:11:46;11.30;99.90
7212;DHT22;3647;48.792;9.802;2023-04-07T17:14:13;11.30;99.90
7212;DHT22;3647;48.792;9.802;2023-04-07T17:16:40;11.30;99.90
7212;DHT22;3647;48.792;9.802;2023-04-07T17:19:07;11.20;99.90
7212;DHT22;3647;48.792;9.802;2023-04-07T17:21:33;11.20;99.90
7212;DHT22;3647;48.792;9.802;2023-04-07T17:24:00;11.10;99.90
7212;DHT22;3647;48.792;9.802;2023-04-07T17:26:28;11.10;99.90
7212;DHT22;3647;48.792;9.802;2023-04-07T17:28:55;11.10;99.90
7212;DHT22;3647;48.792;9.802;2023-04-07T17:31:22;11.00;99.90
7212;DHT22;3647;48.792;9.802;2023-04-07T17:33:49;11.00;99.90
7212;DHT22;3647;48.792;9.802;2023-04-07T17:36:16;11.00;99.90
7212;DHT22;3647;48.792;9.802;2023-04-07T17:38:47;10.90;99.90
7212;DHT22;3647;48.792;9.802;2023-04-07T17:41:14;10.80;99.90
7212;DHT22;3647;48.792;9.802;2023-04-07T17:43:42;10.80;99.90
7212;DHT22;3647;48.792;9.802;2023-04-07T17:46:09;10.70;99.90
7212;DHT22;3647;48.792;9.802;2023-04-07T17:48:35;10.60;99.90
7212;DHT22;3647;48.792;9.802;2023-04-07T17:51:02;10.60;99.90
7212;DHT22;3647;48.792;9.802;2023-04-07T17:53:29;10.50;99.90
7212;DHT22;3647;48.792;9.802;2023-04-07T17:55:56;10.40;99.90
7212;DHT22;3647;48.792;9.802;2023-04-07T17:58:23;10.40;99.90
7212;DHT22;3647;48.792;9.802;2023-04-07T18:00:51;10.50;99.90
7212;DHT22;3647;48.792;9.802;2023-04-07T18:03:18;10.50;99.90
7212;DHT22;3647;48.792;9.802;2023-04-07T18:05:45;10.40;99.90
7212;DHT22;3647;48.792;9.802;2023-04-07T18:08:13;10.30;99.90
7212;DHT22;3647;48.792;9.802;2023-04-07T18:10:40;10.30;99.90
7212;DHT22;3647;48.792;9.802;2023-04-07T18:13:07;10.20;99.90
7212;DHT22;3647;48.792;9.802;2023-04-07T18:15:34;10.20;99.90
7212;DHT22;3647;48.792;9.802;2023-04-07T18:18:03;10.10;99.90
7212;DHT22;3647;48.792;9.802;2023-04-07T18:20:30;10.10;99.90
7212;DHT22;3647;48.792;9.802;2023-04-07T18:22:57;10.10;99.90
7212;DHT22;3647;48.792;9.802;2023-04-07T18:25:24;10.00;99.90
7212;DHT22;3647;48.792;9.802;2023-04-07T18:27:51;10.00;99.90
7212;DHT22;3647;48.792;9.802;2023-04-07T18:30:18;10.00;99.90
7212;DHT22;3647;48.792;9.802;2023-04-07T18:32:45;10.00;99.90
7212;DHT22;3647;48.792;9.802;2023-04-07T18:35:15;9.90;99.90
7212;DHT22;3647;48.792;9.802;2023-04-07T18:37:41;9.90;99.90
7212;DHT22;3647;48.792;9.802;2023-04-07T18:40:09;9.90;99.90
7212;DHT22;3647;48.792;9.802;2023-04-07T18:42:36;9.80;99.90
7212;DHT22;3647;48.792;9.802;2023-04-07T18:45:03;9.80;99.90
7212;DHT22;3647;48.792;9.802;2023-04-07T18:47:29;9.90;99.90
7212;DHT22;3647;48.792;9.802;2023-04-07T18:49:56;9.80;99.90
7212;DHT22;3647;48.792;9.802;2023-04-07T18:52:25;9.80;99.90
7212;DHT22;3647;48.792;9.802;2023-04-07T18:54:52;9.70;99.90
7212;DHT22;3647;48.792;9.802;2023-04-07T18:57:18;9.70;99.90
7212;DHT22;3647;48.792;9.802;2023-04-07T18:59:45;9.70;99.90
7212;DHT22;3647;48.792;9.802;2023-04-07T19:02:12;9.70;99.90
7212;DHT22;3647;48.792;9.802;2023-04-07T19:04:39;10.00;99.90
7212;DHT22;3647;48.792;9.802;2023-04-07T19:07:06;9.70;99.90
7212;DHT22;3647;48.792;9.802;2023-04-07T19:09:34;9.70;99.90
7212;DHT22;3647;48.792;9.802;2023-04-07T19:12:02;9.70;99.90
7212;DHT22;3647;48.792;9.802;2023-04-07T19:14:29;9.70;99.90
7212;DHT22;3647;48.792;9.802;2023-04-07T19:16:55;9.70;99.90
7212;DHT22;3647;48.792;9.802;2023-04-07T19:19:22;9.70;99.90
7212;DHT22;3647;48.792;9.802;2023-04-07T19:21:49;10.10;99.90
7212;DHT22;3647;48.792;9.802;2023-04-07T19:24:16;9.80;99.90
7212;DHT22;3647;48.792;9.802;2023-04-07T19:26:44;9.60;99.90
7212;DHT22;3647;48.792;9.802;2023-04-07T19:29:11;9.60;99.90
7212;DHT22;3647;48.792;9.802;2023-04-07T19:31:37;9.60;99.90
7212;DHT22;3647;48.792;9.802;2023-04-07T19:34:04;9.60;99.90
7212;DHT22;3647;48.792;9.802;2023-04-07T19:36:31;9.60;99.90
7212;DHT22;3647;48.792;9.802;2023-04-07T19:38:58;9.70;99.90
7212;DHT22;3647;48.792;9.802;2023-04-07T19:41:24;9.70;99.90
7212;DHT22;3647;48.792;9.802;2023-04-07T19:43:52;9.70;99.90
7212;DHT22;3647;48.792;9.802;2023-04-07T19:46:19;9.70;99.90
7212;DHT22;3647;48.792;9.802;2023-04-07T19:48:46;9.70;99.90
7212;DHT22;3647;48.792;9.802;2023-04-07T19:51:13;9.60;99.90
7212;DHT22;3647;48.792;9.802;2023-04-07T19:53:41;9.70;99.90
7212;DHT22;3647;48.792;9.802;2023-04-07T19:56:07;9.70;99.90
7212;DHT22;3647;48.792;9.802;2023-04-07T19:58:35;9.60;99.90
7212;DHT22;3647;48.792;9.802;2023-04-07T20:01:04;9.60;99.90
7212;DHT22;3647;48.792;9.802;2023-04-07T20:03:31;9.90;99.90
7212;DHT22;3647;48.792;9.802;2023-04-07T20:05:57;9.50;99.90
7212;DHT22;3647;48.792;9.802;2023-04-07T20:08:24;9.50;99.90
7212;DHT22;3647;48.792;9.802;2023-04-07T20:10:51;9.50;99.90
7212;DHT22;3647;48.792;9.802;2023-04-07T20:13:18;9.50;99.90
7212;DHT22;3647;48.792;9.802;2023-04-07T20:15:44;9.50;99.90
7212;DHT22;3647;48.792;9.802;2023-04-07T20:18:14;9.50;99.90
7212;DHT22;3647;48.792;9.802;2023-04-07T20:20:43;9.50;99.90
7212;DHT22;3647;48.792;9.802;2023-04-07T20:23:10;9.50;99.90
7212;DHT22;3647;48.792;9.802;2023-04-07T20:25:37;9.40;99.90
7212;DHT22;3647;48.792;9.802;2023-04-07T20:28:03;9.40;99.90
7212;DHT22;3647;48.792;9.802;2023-04-07T20:30:30;9.60;99.90
7212;DHT22;3647;48.792;9.802;2023-04-07T20:32:57;9.40;99.90
7212;DHT22;3647;48.792;9.802;2023-04-07T20:35:25;9.30;99.90
7212;DHT22;3647;48.792;9.802;2023-04-07T20:37:52;9.30;99.90
7212;DHT22;3647;48.792;9.802;2023-04-07T20:40:18;9.30;99.90
7212;DHT22;3647;48.792;9.802;2023-04-07T20:42:46;9.30;99.90
7212;DHT22;3647;48.792;9.802;2023-04-07T20:45:12;9.30;99.90
7212;DHT22;3647;48.792;9.802;2023-04-07T20:47:39;9.30;99.90
7212;DHT22;3647;48.792;9.802;2023-04-07T20:50:07;9.30;99.90
7212;DHT22;3647;48.792;9.802;2023-04-07T20:52:35;9.30;99.90
7212;DHT22;3647;48.792;9.802;2023-04-07T20:55:05;9.30;99.90
7212;DHT22;3647;48.792;9.802;2023-04-07T20:57:32;9.30;99.90
7212;DHT22;3647;48.792;9.802;2023-04-07T20:59:59;9.30;99.90
7212;DHT22;3647;48.792;9.802;2023-04-07T21:02:26;9.30;99.90
7212;DHT22;3647;48.792;9.802;2023-04-07T21:04:53;9.20;99.90
7212;DHT22;3647;48.792;9.802;2023-04-07T21:07:20;9.20;99.90
7212;DHT22;3647;48.792;9.802;2023-04-07T21:09:49;9.20;99.90
7212;DHT22;3647;48.792;9.802;2023-04-07T21:12:16;9.20;99.90
7212;DHT22;3647;48.792;9.802;2023-04-07T21:14:43;9.20;99.90
7212;DHT22;3647;48.792;9.802;2023-04-07T21:17:10;9.20;99.90
7212;DHT22;3647;48.792;9.802;2023-04-07T21:19:37;9.20;99.90
7212;DHT22;3647;48.792;9.802;2023-04-07T21:22:04;9.40;99.90
7212;DHT22;3647;48.792;9.802;2023-04-07T21:24:31;9.10;99.90
7212;DHT22;3647;48.792;9.802;2023-04-07T21:26:59;9.10;99.90
7212;DHT22;3647;48.792;9.802;2023-04-07T21:29:29;9.10;99.90
7212;DHT22;3647;48.792;9.802;2023-04-07T21:31:56;9.40;99.90
7212;DHT22;3647;48.792;9.802;2023-04-07T21:37:46;9.10;99.90
7212;DHT22;3647;48.792;9.802;2023-04-07T21:40:12;9.20;99.90
